Time;durP1;ratioP1;P1;durP2;ratioP2;P2;SDS_P1;SDS_P2;PMS_P1;PMS_P2;Temp;Humidity;BMP_temperature;BMP_pressure;BME280_temperature;BME280_humidity;BME280_pressure;Samples;Min_cycle;Max_cycle;Signal;HPM_P1;HPM_P2
2022/08/16 00:00:14;;;;;;;17.63;16.13;;;24.80;71.80;;;27.41;52.02;100455.03;5053804;28;20740;-63
2022/08/16 00:02:49;;;;;;;17.37;15.87;;;24.70;72.00;;;27.42;52.05;100451.25;5053966;28;20217;-62
2022/08/16 00:05:20;;;;;;;16.70;15.10;;;24.70;72.20;;;27.41;51.78;100455.03;5053347;28;20276;-63
2022/08/16 00:07:50;;;;;;;17.90;16.23;;;24.70;72.30;;;27.39;52.34;100447.22;5053671;28;20213;-63
2022/08/16 00:10:27;;;;;;;18.17;16.57;;;24.70;72.50;;;27.36;52.47;100447.75;5053580;28;20236;-62
2022/08/16 00:12:56;;;;;;;17.40;15.90;;;24.70;72.40;;;27.34;52.63;100449.16;5053870;28;20210;-63
2022/08/16 00:15:31;;;;;;;17.07;15.53;;;24.70;72.70;;;27.30;52.28;100448.13;5053942;28;20663;-64
2022/08/16 00:18:19;;;;;;;16.83;15.23;;;24.60;72.70;;;27.29;52.32;100451.97;5055779;28;20198;-63
2022/08/16 00:20:56;;;;;;;17.20;15.57;;;24.60;72.70;;;27.30;52.77;100448.13;5053430;28;20198;-63
2022/08/16 00:23:25;;;;;;;14.77;13.47;;;24.60;72.70;;;27.30;52.73;100458.94;5053894;28;20226;-63
2022/08/16 00:26:06;;;;;;;14.30;13.10;;;24.60;72.50;;;27.29;52.30;100451.97;5054572;28;20196;-63
2022/08/16 00:28:54;;;;;;;14.27;13.07;;;24.60;73.20;;;27.28;52.62;100456.56;5053695;28;20202;-64
2022/08/16 00:31:21;;;;;;;13.77;12.40;;;24.60;72.20;;;27.28;52.41;100458.44;5053036;28;20197;-64
2022/08/16 00:33:50;;;;;;;13.53;12.43;;;24.60;71.90;;;27.25;52.00;100453.63;5053172;28;20190;-64
2022/08/16 00:36:19;;;;;;;13.53;12.30;;;24.60;71.60;;;27.21;51.81;100458.00;5053405;28;20193;-63
2022/08/16 00:38:48;;;;;;;12.33;11.33;;;24.60;71.40;;;27.19;51.52;100462.91;5053309;28;20591;-62
2022/08/16 00:41:16;;;;;;;12.93;11.73;;;24.50;71.30;;;27.18;51.92;100469.38;5052807;28;20210;-65
2022/08/16 00:43:45;;;;;;;11.73;10.73;;;24.50;71.40;;;27.21;51.61;100466.13;5053497;28;20198;-63
2022/08/16 00:46:22;;;;;;;12.73;11.53;;;24.50;71.30;;;27.19;51.52;100462.91;5053163;28;20213;-63
2022/08/16 00:49:04;;;;;;;12.83;11.73;;;24.50;71.30;;;27.19;51.18;100458.31;5053009;28;20189;-64
2022/08/16 00:51:32;;;;;;;11.53;10.33;;;24.50;71.10;;;27.21;51.30;100466.13;5052766;28;20221;-64
2022/08/16 00:54:01;;;;;;;12.87;11.67;;;24.50;71.20;;;27.24;51.99;100468.25;5053181;28;20225;-64
2022/08/16 00:56:36;;;;;;;11.37;10.43;;;24.50;72.00;;;27.27;51.69;100468.44;5055674;28;20285;-63
2022/08/16 00:59:27;;;;;;;11.10;10.10;;;24.50;71.20;;;27.27;51.74;100464.94;5073209;28;20197;-63
2022/08/16 01:01:56;;;;;;;11.30;10.20;;;24.60;71.20;;;27.31;51.38;100466.78;5072351;28;20334;-63
2022/08/16 01:04:27;;;;;;;11.57;10.63;;;24.60;71.30;;;27.36;51.09;100466.69;5062609;28;20225;-63
2022/08/16 01:06:58;;;;;;;10.63;9.67;;;24.60;71.10;;;27.40;51.14;100464.25;5053070;28;20186;-64
2022/08/16 01:09:34;;;;;;;10.97;9.37;;;24.60;70.80;;;27.40;51.04;100465.06;5052686;28;20194;-64
2022/08/16 01:12:09;;;;;;;10.67;9.67;;;24.70;70.80;;;27.43;50.99;100466.38;5052561;28;20234;-62
2022/08/16 01:14:45;;;;;;;11.63;10.63;;;24.70;70.60;;;27.41;50.78;100471.25;5053027;28;20189;-65
2022/08/16 01:17:16;;;;;;;12.50;11.10;;;24.70;70.40;;;27.42;50.79;100475.59;5054138;28;20170;-65
2022/08/16 01:19:51;;;;;;;10.77;9.87;;;24.70;70.10;;;27.36;50.55;100468.63;5056921;28;20217;-63
2022/08/16 01:22:35;;;;;;;11.57;10.63;;;24.70;70.10;;;27.31;50.97;100471.38;5056437;28;20226;-64
2022/08/16 01:25:23;;;;;;;11.47;10.47;;;24.70;70.20;;;27.28;51.23;100469.25;5056661;28;20202;-64
2022/08/16 01:28:06;;;;;;;12.27;11.10;;;24.60;70.20;;;27.28;51.13;100482.78;5056867;28;20186;-64
2022/08/16 01:30:40;;;;;;;11.37;10.33;;;24.60;70.40;;;27.26;51.01;100485.78;5056477;28;20197;-64
2022/08/16 01:33:19;;;;;;;11.77;10.67;;;24.60;70.40;;;27.24;51.12;100493.34;5056634;28;20719;-64
2022/08/16 01:35:55;;;;;;;12.33;11.23;;;24.60;70.30;;;27.20;51.29;100505.84;5071756;28;20194;-62
2022/08/16 01:38:28;;;;;;;11.07;9.97;;;24.60;70.40;;;27.19;51.00;100498.03;5056556;28;20200;-62
2022/08/16 01:41:01;;;;;;;10.13;9.20;;;24.50;70.40;;;27.18;51.15;100499.13;5056498;28;20212;-63
2022/08/16 01:43:32;;;;;;;10.30;9.50;;;24.50;70.60;;;27.19;51.32;100506.16;5056625;28;20217;-63
2022/08/16 01:46:03;;;;;;;12.00;10.80;;;24.50;70.80;;;27.19;50.76;100506.16;5056377;28;20190;-63
2022/08/16 01:48:55;;;;;;;9.50;8.70;;;24.40;70.60;;;27.15;51.57;100505.09;5056562;28;20652;-63
2022/08/16 01:51:25;;;;;;;10.03;9.23;;;24.40;70.70;;;27.15;51.00;100511.31;5056181;28;20196;-64
2022/08/16 01:53:55;;;;;;;12.67;11.67;;;24.40;70.90;;;27.15;51.06;100510.50;5056413;28;20273;-65
2022/08/16 01:56:25;;;;;;;13.13;11.67;;;24.40;71.00;;;27.14;51.34;100508.91;5057768;28;20213;-64
2022/08/16 01:58:56;;;;;;;12.80;11.73;;;24.40;71.10;;;27.12;51.57;100521.94;5076415;28;20216;-64
2022/08/16 02:01:25;;;;;;;14.37;13.03;;;24.40;71.00;;;27.11;51.32;100514.91;5075782;28;20224;-64
2022/08/16 02:03:56;;;;;;;12.77;11.67;;;24.40;71.00;;;27.11;51.51;100512.19;5069813;28;20202;-64
2022/08/16 02:06:26;;;;;;;13.80;12.53;;;24.40;71.90;;;27.13;51.26;100518.09;5056343;28;20198;-64
2022/08/16 02:09:07;;;;;;;13.40;12.20;;;24.40;71.00;;;27.09;51.48;100508.97;5055962;28;20547;-64
2022/08/16 02:11:43;;;;;;;14.27;12.93;;;24.40;70.90;;;27.05;51.45;100522.28;5055743;28;20210;-64
2022/08/16 02:14:23;;;;;;;13.73;12.53;;;24.30;70.60;;;27.03;51.27;100513.63;5056099;28;20201;-64
2022/08/16 02:16:55;;;;;;;12.00;11.00;;;24.30;70.50;;;27.02;51.47;100511.22;5056127;28;20192;-63
2022/08/16 02:19:26;;;;;;;12.60;11.30;;;24.30;70.60;;;27.05;50.92;100516.06;5055804;28;20186;-62
2022/08/16 02:22:17;;;;;;;13.87;12.67;;;24.30;70.80;;;27.08;50.98;100521.69;5035338;28;20229;-64
2022/08/16 02:25:08;;;;;;;13.50;12.40;;;24.40;70.90;;;27.10;50.84;100524.13;5035531;28;20715;-64
2022/08/16 02:27:40;;;;;;;10.83;9.97;;;24.40;70.80;;;27.11;51.16;100520.31;5043352;28;20219;-63
2022/08/16 02:30:13;;;;;;;13.90;12.77;;;24.40;70.70;;;27.15;50.98;100521.31;5055745;28;20200;-63
2022/08/16 02:33:01;;;;;;;11.53;10.53;;;24.40;70.50;;;27.18;50.83;100509.94;5055825;28;20555;-63
2022/08/16 02:35:31;;;;;;;12.97;11.80;;;24.50;70.40;;;27.21;50.44;100503.97;5055697;28;20244;-62
2022/08/16 02:37:59;;;;;;;12.83;11.73;;;24.50;70.10;;;27.23;50.64;100505.28;5055889;28;20216;-64
2022/08/16 02:40:35;;;;;;;11.63;10.67;;;24.50;70.00;;;27.24;50.33;100503.38;5055189;28;20197;-64
2022/08/16 02:43:05;;;;;;;12.80;11.43;;;24.50;69.90;;;27.27;50.27;100510.91;5055613;28;20690;-62
2022/08/16 02:45:34;;;;;;;12.63;11.57;;;24.50;69.80;;;27.28;50.33;100509.81;5055548;28;20190;-64
2022/08/16 02:48:03;;;;;;;11.57;10.67;;;24.50;69.60;;;27.28;50.37;100509.81;5056145;28;20194;-64
2022/08/16 02:50:50;;;;;;;11.87;10.73;;;24.60;69.50;;;27.29;50.47;100506.03;5055300;28;20593;-63
2022/08/16 02:53:35;;;;;;;12.57;11.57;;;24.60;69.50;;;27.31;50.35;100509.25;5055378;28;20194;-63
2022/08/16 02:56:05;;;;;;;11.60;10.60;;;24.60;69.20;;;27.34;50.14;100514.06;5054842;28;20194;-63
2022/08/16 02:58:37;;;;;;;11.43;10.33;;;24.60;69.30;;;27.33;50.29;100501.63;5035435;28;20252;-63
2022/08/16 03:01:05;;;;;;;9.87;9.07;;;24.70;69.30;;;27.33;50.14;100501.63;5034430;28;20304;-62
2022/08/16 03:03:35;;;;;;;12.63;11.53;;;24.70;69.30;;;27.34;50.25;100500.53;5041999;28;20211;-63
2022/08/16 03:06:23;;;;;;;11.07;10.07;;;24.70;69.30;;;27.35;50.38;100496.75;5074631;28;20200;-62
2022/08/16 03:09:08;;;;;;;12.07;10.97;;;24.70;69.30;;;27.36;50.66;100501.84;5059654;28;20222;-64
2022/08/16 03:11:41;;;;;;;11.43;10.53;;;24.70;69.30;;;27.40;50.09;100504.81;5054350;28;20226;-63
2022/08/16 03:14:11;;;;;;;12.83;11.73;;;24.80;69.40;;;27.41;49.99;100501.00;5054707;28;20194;-64
2022/08/16 03:16:39;;;;;;;12.60;11.37;;;24.70;69.20;;;27.38;50.28;100494.31;5054450;28;20197;-64
2022/08/16 03:19:28;;;;;;;15.33;13.87;;;24.70;69.20;;;27.32;50.33;100500.03;5054663;28;20200;-64
2022/08/16 03:22:17;;;;;;;15.20;13.90;;;24.80;70.10;;;27.21;50.42;100502.06;5054235;28;20275;-63
2022/08/16 03:24:57;;;;;;;18.13;16.60;;;24.70;69.30;;;27.10;51.04;100510.59;5054644;28;20201;-64
2022/08/16 03:27:26;;;;;;;18.20;16.60;;;24.60;69.40;;;26.96;51.44;100517.81;5054822;28;20217;-65
2022/08/16 03:30:06;;;;;;;19.03;17.47;;;24.60;69.90;;;26.75;52.08;100512.59;5054579;28;20222;-64
2022/08/16 03:32:45;;;;;;;18.47;16.97;;;24.40;70.30;;;26.62;51.96;100507.06;5053975;28;20662;-64
2022/08/16 03:35:15;;;;;;;18.07;16.57;;;24.30;70.70;;;26.54;52.51;100499.56;5054439;28;20194;-64
2022/08/16 03:37:46;;;;;;;17.13;15.60;;;24.20;71.10;;;26.47;52.73;100502.63;5054307;28;20236;-64
2022/08/16 03:40:32;;;;;;;18.53;17.03;;;24.10;71.30;;;26.42;52.56;100497.25;5053557;28;20197;-63
2022/08/16 03:43:04;;;;;;;14.20;12.90;;;24.10;71.60;;;26.44;53.17;100495.06;5054030;28;20663;-65
2022/08/16 03:45:51;;;;;;;13.70;12.53;;;24.00;72.60;;;26.48;52.68;100489.94;5054454;28;20276;-61
2022/08/16 03:48:22;;;;;;;15.77;14.23;;;24.00;72.20;;;26.56;52.92;100484.69;5054263;28;20269;-62
2022/08/16 03:51:06;;;;;;;14.70;13.27;;;24.00;72.20;;;26.66;52.56;100492.69;5054146;28;20282;-63
2022/08/16 03:53:36;;;;;;;13.33;12.23;;;24.00;72.30;;;26.74;52.40;100492.03;5054305;28;20197;-63
2022/08/16 03:56:06;;;;;;;14.30;13.10;;;24.10;72.40;;;26.80;52.17;100488.25;5053874;28;20197;-64
2022/08/16 03:58:48;;;;;;;14.80;13.50;;;24.10;72.10;;;26.85;51.99;100481.97;5034021;28;20197;-63
2022/08/16 04:01:23;;;;;;;13.53;12.40;;;24.20;72.20;;;26.90;52.16;100486.50;5032050;28;20218;-63
2022/08/16 04:03:55;;;;;;;13.67;12.33;;;24.20;71.80;;;26.99;52.35;100490.19;5046955;28;20705;-62
2022/08/16 04:06:23;;;;;;;12.43;11.43;;;24.30;71.70;;;27.05;51.47;100489.03;5073598;28;20588;-63
2022/08/16 04:08:50;;;;;;;13.20;12.00;;;24.30;71.40;;;27.09;51.50;100492.75;5060961;28;20194;-63
2022/08/16 04:11:19;;;;;;;14.83;13.43;;;24.40;72.10;;;27.09;51.22;100500.88;5053791;28;20562;-64
2022/08/16 04:13:50;;;;;;;14.40;13.00;;;24.40;71.00;;;27.08;51.42;100497.34;5038774;28;20202;-63
2022/08/16 04:16:39;;;;;;;14.77;13.47;;;24.50;70.90;;;27.09;51.98;100500.88;5034160;28;20213;-64
2022/08/16 04:19:06;;;;;;;14.03;12.73;;;24.40;70.90;;;27.09;51.49;100508.97;5033635;28;20557;-62
2022/08/16 04:21:35;;;;;;;14.87;13.47;;;24.40;70.90;;;27.07;51.64;100505.75;5052613;28;20747;-62
2022/08/16 04:24:14;;;;;;;14.77;13.37;;;24.40;70.90;;;27.04;51.89;100514.44;5054148;28;20689;-63
2022/08/16 04:26:43;;;;;;;15.07;13.67;;;24.40;71.00;;;27.01;52.00;100517.72;5053685;28;20194;-63
2022/08/16 04:29:14;;;;;;;14.83;13.53;;;24.40;71.10;;;26.97;51.65;100519.38;5053687;28;20190;-63
2022/08/16 04:31:54;;;;;;;14.43;13.23;;;24.40;71.00;;;26.92;51.64;100520.25;5053371;28;20209;-62
2022/08/16 04:34:27;;;;;;;13.53;12.43;;;24.30;71.20;;;26.93;52.13;100523.78;5053459;28;20252;-63
2022/08/16 04:36:57;;;;;;;17.87;16.47;;;24.30;71.40;;;26.89;52.29;100523.53;5053262;28;20706;-65
2022/08/16 04:39:30;;;;;;;18.73;17.20;;;24.30;71.50;;;26.83;52.02;100524.69;5053777;28;20541;-62
2022/08/16 04:42:16;;;;;;;20.90;18.90;;;24.30;71.40;;;26.65;52.19;100523.47;5053097;28;20214;-64
2022/08/16 04:44:44;;;;;;;22.43;20.33;;;24.20;71.30;;;26.52;52.71;100540.38;5053317;28;20586;-64
2022/08/16 04:47:27;;;;;;;22.17;20.17;;;24.20;71.80;;;26.36;53.12;100541.59;5053312;28;20271;-64
2022/08/16 04:49:59;;;;;;;20.17;18.37;;;24.00;72.40;;;26.25;53.73;100545.47;5053199;28;20673;-64
2022/08/16 04:52:28;;;;;;;20.63;18.60;;;23.90;72.90;;;26.16;54.02;100541.75;5054367;28;20212;-63
2022/08/16 04:55:07;;;;;;;20.20;18.50;;;23.80;73.30;;;26.05;54.61;100549.09;5057224;28;20192;-64
2022/08/16 04:57:36;;;;;;;20.80;18.80;;;23.80;73.60;;;25.97;54.97;100554.28;5069045;28;20606;-65
2022/08/16 05:00:11;;;;;;;17.77;15.90;;;23.70;73.90;;;25.94;54.88;100554.84;5076762;28;20224;-64
2022/08/16 05:03:04;;;;;;;16.70;15.33;;;23.60;73.80;;;25.95;54.95;100541.09;5077076;28;20221;-63
2022/08/16 05:05:37;;;;;;;18.37;16.70;;;23.50;74.00;;;25.99;54.46;100546.72;5037074;28;20190;-65
2022/08/16 05:08:12;;;;;;;15.10;13.87;;;23.50;74.50;;;26.01;54.74;100552.63;5037071;28;20201;-63
2022/08/16 05:10:58;;;;;;;20.67;18.67;;;23.50;74.70;;;26.08;54.81;100545.84;5056308;28;20212;-65
2022/08/16 05:13:27;;;;;;;18.00;16.50;;;23.50;74.70;;;26.13;54.60;100553.13;5056970;28;20206;-65
2022/08/16 05:16:11;;;;;;;18.37;16.77;;;23.60;74.70;;;26.12;54.98;100546.13;5057213;28;20623;-65
2022/08/16 05:18:52;;;;;;;16.47;15.07;;;23.60;74.50;;;26.18;54.46;100550.38;5072572;28;20205;-63
2022/08/16 05:21:20;;;;;;;16.73;15.00;;;23.60;74.40;;;26.27;54.09;100554.09;5056748;28;20265;-63
2022/08/16 05:23:50;;;;;;;19.53;17.90;;;23.70;74.40;;;26.26;54.51;100552.50;5056152;28;20193;-64
2022/08/16 05:26:24;;;;;;;17.53;16.03;;;23.70;74.40;;;26.25;54.12;100553.56;5056990;28;20265;-65
2022/08/16 05:28:55;;;;;;;19.47;17.53;;;23.70;74.30;;;26.23;54.36;100563.84;5056984;28;20310;-65
2022/08/16 05:31:24;;;;;;;16.83;15.13;;;23.70;74.30;;;26.20;54.76;100559.00;5056413;28;20289;-63
2022/08/16 05:33:59;;;;;;;18.23;16.63;;;23.70;74.40;;;26.18;54.23;100563.88;5056623;28;20634;-63
2022/08/16 05:36:30;;;;;;;18.33;16.50;;;23.70;74.70;;;26.19;54.94;100562.81;5056464;28;20198;-65
2022/08/16 05:39:05;;;;;;;17.00;15.53;;;23.70;74.80;;;26.23;54.80;100563.03;5056936;28;20238;-65
2022/08/16 05:41:36;;;;;;;14.67;13.30;;;23.70;74.80;;;26.28;54.07;100561.09;5055445;28;20313;-65
2022/08/16 05:44:14;;;;;;;14.13;13.03;;;23.70;74.80;;;26.37;54.04;100570.19;5056498;28;20198;-64
2022/08/16 05:46:53;;;;;;;13.67;12.53;;;23.70;74.80;;;26.52;53.87;100572.78;5070643;28;20193;-64
2022/08/16 05:49:24;;;;;;;16.10;14.70;;;23.80;74.90;;;26.62;53.49;100577.28;5056866;28;20557;-65
2022/08/16 05:52:05;;;;;;;17.40;15.90;;;23.90;74.80;;;26.71;53.91;100576.38;5056030;28;20240;-63
2022/08/16 05:54:41;;;;;;;16.50;15.10;;;24.00;74.30;;;26.75;53.58;100576.63;5057147;28;20190;-62
2022/08/16 05:57:15;;;;;;;16.07;14.57;;;24.00;73.90;;;26.77;52.82;100575.25;5065859;28;20208;-64
2022/08/16 05:59:46;;;;;;;20.50;16.03;;;24.00;73.60;;;26.83;53.37;100579.53;5077302;28;20194;-63
2022/08/16 06:02:16;;;;;;;18.33;16.47;;;24.10;73.70;;;26.84;53.04;100575.72;5076340;28;20666;-64
2022/08/16 06:04:45;;;;;;;14.77;13.53;;;24.10;73.40;;;26.88;52.53;100572.47;5063174;28;20190;-64
2022/08/16 06:07:13;;;;;;;15.10;13.57;;;24.20;73.30;;;26.90;52.33;100570.28;5057598;28;20197;-63
2022/08/16 06:09:57;;;;;;;16.00;14.47;;;24.20;73.10;;;26.91;52.89;100575.38;5037685;28;20178;-65
2022/08/16 06:12:27;;;;;;;14.47;13.23;;;24.20;72.90;;;26.93;52.37;100575.13;5044464;28;20206;-65
2022/08/16 06:14:57;;;;;;;14.53;13.03;;;24.20;72.50;;;26.95;52.43;100575.63;5059653;28;20190;-63
2022/08/16 06:17:27;;;;;;;15.17;13.87;;;24.20;72.40;;;27.00;52.13;100578.28;5059011;28;20190;-64
2022/08/16 06:20:19;;;;;;;15.60;14.00;;;24.30;73.40;;;27.03;52.23;100588.53;5058432;28;20650;-64
2022/08/16 06:22:55;;;;;;;14.50;13.10;;;24.30;72.40;;;27.10;51.81;100594.41;5057319;28;20221;-63
2022/08/16 06:25:31;;;;;;;14.50;13.10;;;24.40;72.40;;;27.17;51.84;100587.53;5055935;28;20277;-64
2022/08/16 06:28:07;;;;;;;14.87;13.47;;;24.40;72.30;;;27.18;51.78;100596.44;5055880;28;20549;-63
2022/08/16 06:30:37;;;;;;;14.83;13.57;;;24.40;72.20;;;27.21;51.83;100594.00;5055471;28;20542;-65
2022/08/16 06:33:11;;;;;;;15.30;13.80;;;24.50;72.00;;;27.27;51.60;100598.22;5055807;28;20205;-64
2022/08/16 06:35:48;;;;;;;14.67;13.37;;;24.50;71.80;;;27.29;51.65;100597.97;5055672;28;20185;-63
2022/08/16 06:38:16;;;;;;;14.73;13.40;;;24.60;71.50;;;27.32;51.07;100597.38;5055477;28;20186;-64
2022/08/16 06:40:59;;;;;;;16.40;14.90;;;24.60;71.30;;;27.33;51.33;100604.38;5055076;28;20201;-64
2022/08/16 06:43:28;;;;;;;14.97;13.67;;;24.70;71.10;;;27.39;50.79;100598.66;5072042;28;20215;-63
2022/08/16 06:45:56;;;;;;;13.90;12.53;;;24.70;70.90;;;27.39;51.08;100597.84;5055443;28;20254;-64
2022/08/16 06:48:25;;;;;;;14.37;12.97;;;24.70;70.80;;;27.47;50.93;100600.72;5055315;28;20194;-63
2022/08/16 06:51:03;;;;;;;16.43;12.93;;;24.80;71.10;;;27.61;51.02;100600.81;5054934;28;20204;-63
2022/08/16 06:53:34;;;;;;;14.47;12.97;;;24.90;71.30;;;27.75;50.90;100603.59;5055588;28;20212;-64
2022/08/16 06:56:06;;;;;;;14.87;13.60;;;24.90;71.10;;;27.81;50.23;100608.69;5055065;28;20617;-65
2022/08/16 06:58:51;;;;;;;13.30;12.20;;;25.00;70.70;;;27.91;50.58;100611.22;5035056;28;20194;-62
2022/08/16 07:01:19;;;;;;;14.60;13.20;;;25.10;70.40;;;27.93;50.46;100609.03;5038432;28;20198;-64
2022/08/16 07:04:07;;;;;;;14.70;13.20;;;25.10;70.10;;;28.12;50.21;100615.28;5063271;28;20232;-64
2022/08/16 07:06:41;;;;;;;13.83;12.73;;;25.20;70.30;;;28.30;49.46;100618.25;5075449;28;20224;-65
2022/08/16 07:09:11;;;;;;;13.17;11.40;;;25.40;69.90;;;28.40;49.39;100626.22;5059421;28;20312;-65
2022/08/16 07:11:39;;;;;;;14.57;13.37;;;25.40;69.50;;;28.54;48.94;100625.19;5055001;28;20350;-65
2022/08/16 07:14:17;;;;;;;13.27;11.97;;;25.60;69.20;;;28.60;48.70;100615.06;5069961;28;20205;-64
2022/08/16 07:16:56;;;;;;;10.70;9.60;;;25.60;68.90;;;28.72;49.04;100618.13;5054603;28;20196;-63
2022/08/16 07:19:26;;;;;;;12.73;11.60;;;25.80;69.70;;;28.81;48.55;100619.06;5055376;28;20267;-64
2022/08/16 07:22:16;;;;;;;11.53;10.43;;;25.90;68.60;;;28.91;48.38;100620.78;5053282;28;20218;-66
2022/08/16 07:25:07;;;;;;;14.53;13.03;;;26.00;68.40;;;29.02;47.93;100625.72;5053411;28;20263;-63
2022/08/16 07:27:36;;;;;;;11.20;10.20;;;26.10;67.50;;;29.05;47.96;100630.53;5054856;28;20194;-63
2022/08/16 07:30:08;;;;;;;12.27;11.37;;;26.10;68.10;;;29.02;47.54;100630.34;5054535;28;20205;-62
2022/08/16 07:32:56;;;;;;;12.03;10.87;;;26.20;66.70;;;28.91;48.10;100624.28;5054876;28;20205;-64
2022/08/16 07:35:24;;;;;;;12.53;11.47;;;26.20;66.90;;;28.90;48.03;100622.69;5054544;28;20739;-65
2022/08/16 07:37:53;;;;;;;11.67;10.50;;;26.20;67.00;;;28.90;48.38;100630.84;5054073;28;20185;-63
2022/08/16 07:40:21;;;;;;;11.63;10.60;;;26.20;67.30;;;28.94;48.51;100623.69;5054815;28;20198;-63
2022/08/16 07:43:12;;;;;;;12.20;11.03;;;26.20;67.50;;;28.98;48.45;100623.91;5054248;28;20221;-64
2022/08/16 07:45:39;;;;;;;11.77;10.60;;;26.20;67.30;;;29.01;48.11;100615.16;5054931;28;20190;-64
2022/08/16 07:48:09;;;;;;;10.07;9.17;;;26.30;66.90;;;29.12;48.07;100614.66;5054216;28;20209;-64
2022/08/16 07:50:39;;;;;;;9.57;8.87;;;26.30;66.90;;;29.33;47.90;100620.56;5054280;28;20186;-64
2022/08/16 07:53:30;;;;;;;8.80;7.90;;;26.40;66.70;;;29.64;47.23;100626.16;5054581;28;20213;-64
2022/08/16 07:55:59;;;;;;;8.73;7.83;;;26.60;66.70;;;30.02;46.04;100630.22;5054586;28;20202;-63
2022/08/16 07:58:28;;;;;;;12.73;7.40;;;26.80;65.60;;;30.28;45.08;100620.38;5062011;28;20632;-65
2022/08/16 08:01:05;;;;;;;8.07;7.37;;;27.00;64.70;;;30.49;45.12;100635.09;5053264;28;20268;-65
2022/08/16 08:03:42;;;;;;;7.87;6.90;;;27.20;63.90;;;30.67;44.32;100639.53;5058332;28;20212;-64
2022/08/16 08:06:18;;;;;;;11.70;10.63;;;27.40;63.80;;;30.63;43.00;100638.56;5056646;28;20285;-64
2022/08/16 08:08:48;;;;;;;11.97;10.80;;;27.50;61.00;;;30.47;43.72;100650.94;5053604;28;20190;-64
2022/08/16 08:11:26;;;;;;;11.73;10.53;;;27.60;60.60;;;30.39;44.04;100645.41;5053449;28;20273;-62
2022/08/16 08:13:58;;;;;;;10.37;9.30;;;27.60;61.40;;;30.46;43.53;100641.16;5053607;28;20213;-64
2022/08/16 08:16:30;;;;;;;12.13;8.90;;;27.60;60.90;;;30.51;43.67;100643.75;5053468;28;20193;-63
2022/08/16 08:18:59;;;;;;;10.97;9.87;;;27.70;60.40;;;30.57;43.31;100656.09;5054309;28;20186;-64
2022/08/16 08:21:31;;;;;;;11.53;10.37;;;27.70;60.00;;;30.69;42.59;100644.69;5052924;28;20702;-65
2022/08/16 08:24:23;;;;;;;12.83;11.53;;;27.70;59.60;;;30.67;42.84;100655.84;5053318;28;20220;-64
2022/08/16 08:27:00;;;;;;;11.03;10.03;;;27.80;59.00;;;30.67;42.55;100652.31;5053590;28;20218;-68
2022/08/16 08:29:31;;;;;;;9.60;8.70;;;27.90;59.20;;;30.70;43.16;100659.88;5052656;28;20193;-53
2022/08/16 08:32:08;;;;;;;9.93;9.03;;;28.00;60.00;;;30.78;42.42;100657.19;5052243;28;20259;-57
2022/08/16 08:34:57;;;;;;;14.87;11.33;;;28.00;59.00;;;30.87;43.05;100661.88;5053186;28;20611;-56
2022/08/16 08:37:31;;;;;;;11.33;10.33;;;28.00;58.90;;;31.04;42.28;100662.00;5053193;28;20542;-54
2022/08/16 08:40:23;;;;;;;10.00;9.10;;;28.10;58.90;;;31.29;42.24;100659.41;5053230;28;20204;-54
2022/08/16 08:42:58;;;;;;;13.03;11.60;;;28.20;58.60;;;31.73;41.29;100665.81;5053417;28;20216;-55
2022/08/16 08:45:45;;;;;;;9.40;8.50;;;28.40;58.20;;;32.13;40.21;100675.53;5053608;28;20554;-55
2022/08/16 08:48:17;;;;;;;9.33;8.43;;;28.60;58.00;;;32.46;40.13;100668.47;5052984;28;20201;-56
2022/08/16 08:51:05;;;;;;;10.37;9.33;;;28.80;57.80;;;32.71;39.09;100664.16;5052658;28;20646;-55
2022/08/16 08:53:36;;;;;;;8.40;7.50;;;29.10;56.80;;;32.87;39.40;100672.59;5052888;28;20285;-55
2022/08/16 08:56:06;;;;;;;14.37;10.57;;;29.30;56.70;;;32.93;38.14;100680.28;5052763;28;20193;-56
2022/08/16 08:58:52;;;;;;;11.87;9.23;;;29.40;54.80;;;32.90;38.60;100677.41;5032623;28;20195;-57
2022/08/16 09:01:30;;;;;;;9.80;8.27;;;29.60;54.60;;;33.06;38.34;100682.06;5040052;28;20259;-56
2022/08/16 09:04:10;;;;;;;10.63;9.53;;;29.70;54.80;;;33.18;37.32;100682.19;5052620;28;20670;-54
2022/08/16 09:06:44;;;;;;;11.70;8.90;;;29.80;53.80;;;33.18;37.80;100684.91;5052649;28;20646;-53
2022/08/16 09:09:12;;;;;;;9.10;8.30;;;29.90;53.70;;;33.10;38.06;100677.53;5067837;28;20197;-55
2022/08/16 09:11:45;;;;;;;10.37;8.80;;;29.90;53.80;;;33.06;37.95;100682.06;5052153;28;20213;-55
2022/08/16 09:14:33;;;;;;;10.77;9.60;;;30.00;53.80;;;33.04;37.97;100678.88;5052369;28;20185;-53
2022/08/16 09:17:02;;;;;;;9.77;8.77;;;30.00;53.80;;;33.11;37.95;100684.63;5052335;28;20220;-55
2022/08/16 09:19:50;;;;;;;8.43;7.73;;;30.00;53.60;;;33.04;37.81;100680.78;5052482;28;20189;-54
2022/08/16 09:22:22;;;;;;;8.47;7.73;;;30.00;53.20;;;32.98;37.81;100688.31;5052131;28;20213;-54
2022/08/16 09:24:50;;;;;;;9.83;8.90;;;30.00;52.70;;;32.80;37.31;100683.22;5052266;28;20216;-54
2022/08/16 09:27:32;;;;;;;9.80;8.63;;;29.90;52.10;;;32.60;37.73;100680.03;5052309;28;20201;-54
2022/08/16 09:30:19;;;;;;;9.47;8.57;;;29.80;52.40;;;32.37;37.82;100680.50;5052297;28;20235;-56
2022/08/16 09:33:07;;;;;;;8.40;7.60;;;29.60;52.00;;;32.18;38.31;100683.56;5052489;28;20206;-54
2022/08/16 09:35:36;;;;;;;7.67;6.93;;;29.60;52.60;;;32.08;37.55;100689.31;5052493;28;20193;-53
2022/08/16 09:38:06;;;;;;;13.57;11.10;;;29.50;52.20;;;32.00;38.04;100688.16;5068254;28;20273;-56
2022/08/16 09:40:36;;;;;;;6.77;6.17;;;29.40;52.40;;;31.94;38.85;100689.41;5056119;28;20209;-57
2022/08/16 09:43:14;;;;;;;7.83;6.83;;;29.30;52.70;;;31.83;38.00;100693.53;5056148;28;20228;-55
2022/08/16 09:46:06;;;;;;;9.33;7.03;;;29.20;52.90;;;31.85;38.64;100691.34;5056048;28;20201;-58
2022/08/16 09:48:54;;;;;;;8.50;7.70;;;29.20;53.30;;;31.81;37.79;100690.34;5055779;28;20236;-54
2022/08/16 09:51:25;;;;;;;8.30;7.57;;;29.10;52.60;;;31.77;38.75;100691.28;5055575;28;20194;-56
2022/08/16 09:54:04;;;;;;;7.73;7.03;;;29.10;52.80;;;31.66;38.52;100693.53;5055762;28;20213;-55
2022/08/16 09:56:34;;;;;;;7.57;6.87;;;29.00;52.80;;;31.61;39.00;100690.94;5058040;28;20205;-54
2022/08/16 09:59:08;;;;;;;7.97;7.07;;;29.00;53.00;;;31.56;38.15;100691.09;5056117;28;20202;-55
2022/08/16 10:01:37;;;;;;;6.30;5.70;;;28.90;52.60;;;31.56;38.76;100688.34;5054973;28;20574;-55
2022/08/16 10:04:11;;;;;;;9.73;6.80;;;28.90;52.90;;;31.54;38.50;100693.31;5064190;28;20216;-54
2022/08/16 10:06:58;;;;;;;8.33;7.47;;;28.90;52.60;;;31.39;38.13;100693.69;5076063;28;20198;-56
2022/08/16 10:09:30;;;;;;;8.40;7.63;;;28.80;52.40;;;31.40;38.32;100689.88;5058334;28;20198;-55
2022/08/16 10:15:14;;;;;;;8.73;6.90;;;28.80;52.70;;;31.46;38.74;100694.09;5057577;28;20539;-55
2022/08/16 10:17:45;;;;;;;10.30;8.47;;;28.80;53.00;;;31.54;38.04;100687.88;5057075;28;20200;-57
2022/08/16 10:20:33;;;;;;;8.13;7.37;;;28.80;52.50;;;31.69;38.45;100692.88;5057392;28;20224;-57
2022/08/16 10:23:02;;;;;;;9.30;7.10;;;28.80;52.50;;;31.90;37.75;100696.59;5057956;28;20244;-57
2022/08/16 10:25:36;;;;;;;8.20;7.40;;;29.00;52.50;;;32.12;37.18;100695.72;5057266;28;20276;-52
2022/08/16 10:28:24;;;;;;;8.90;6.87;;;29.10;52.30;;;32.52;37.22;100699.13;5068148;28;20200;-53
2022/08/16 10:30:58;;;;;;;7.23;6.20;;;29.20;52.30;;;32.87;36.16;100689.78;5055370;28;20181;-54
2022/08/16 10:33:27;;;;;;;9.40;7.57;;;29.40;51.70;;;33.52;35.78;100699.53;5055425;28;20263;-56
2022/08/16 10:35:56;;;;;;;8.67;6.70;;;29.70;51.80;;;34.19;34.60;100692.09;5055470;28;20206;-56
2022/08/16 10:38:30;;;;;;;7.20;6.60;;;30.00;51.30;;;34.80;33.71;100692.41;5070254;28;20630;-55